Flight Track Log - Related Links

Times and Time Zones

All times are in EDT time to prevent confusion due to time zone crossing. See the N487VC flight status page for this flight to view local times or setup timezone preferences in your user account.

Time Position Orientation Groundspeed Altitude Reporting Facility
EDT Latitude Longitude Course Direction KTS MPH feet Rate Location/Type
Sun 01:35:02 PM 42.4667 -71.3833 267° West 175 201 3,100  Level KA90
Sun 01:36:07 PM 42.4167 -71.3667 166° South 168 193 6,000 2,256 Climbing KA90
Sun 01:37:07 PM 42.3667 -71.3333 154° Southeast 193 222 7,800 1,617 Climbing KA90
Sun 01:38:02 PM 42.3333 -71.3333 180° South 202 232 9,100 1,313 Climbing KA90
Sun 01:39:15 PM 42.2619 -71.3797 206° Southwest 214 246 10,600 1,531 Climbing Boston Center
Sun 01:40:27 PM 42.2000 -71.4228 207° Southwest 214 246 12,800 1,545 Climbing Boston Center
Sun 01:41:27 PM 42.1481 -71.4572 206° Southwest 214 246 14,000 600 Climbing Boston Center
Sun 01:42:27 PM 42.0942 -71.4972 209° Southwest 220 253 14,000  Level Boston Center
Sun 01:43:27 PM 42.0364 -71.5400 209° Southwest 226 260 14,000  Level Boston Center
Sun 01:44:27 PM 41.9761 -71.5800 206° Southwest 236 272 14,000  Level Boston Center
Sun 01:45:27 PM 41.9222 -71.6281 214° Southwest 241 277 14,000  Level Boston Center
Sun 01:46:27 PM 41.8811 -71.6817 224° Southwest 236 272 14,000  Level Boston Center
Sun 01:47:27 PM 41.8272 -71.7408 219° Southwest 236 272 14,000  Level Boston Center
Sun 01:48:27 PM 41.7836 -71.7942 222° Southwest 236 272 14,000  Level Boston Center
Sun 01:49:27 PM 41.7319 -71.8586 223° Southwest 236 272 14,000  Level Boston Center
Sun 01:50:27 PM 41.6864 -71.9119 221° Southwest 236 272 14,000  Level Boston Center
Sun 01:51:27 PM 41.6347 -71.9764 223° Southwest 236 272 14,000  Level Boston Center
Sun 01:52:27 PM 41.5911 -72.0267 221° Southwest 236 272 14,000  Level Boston Center
Sun 01:53:27 PM 41.5369 -72.0906 221° Southwest 236 272 14,000  Level Boston Center
Sun 01:54:27 PM 41.4933 -72.1436 222° Southwest 236 272 14,000  Level Boston Center
Sun 01:55:27 PM 41.4394 -72.2103 223° Southwest 236 272 14,000  Level Boston Center
Sun 01:56:27 PM 41.3936 -72.2603 219° Southwest 236 272 14,000  Level Boston Center
Sun 01:57:27 PM 41.3394 -72.3239 221° Southwest 236 272 14,000  Level Boston Center
Sun 01:58:27 PM 41.2917 -72.3822 223° Southwest 236 272 14,000  Level Boston Center
Sun 01:59:27 PM 41.2458 -72.4289 217° Southwest 236 272 14,000  Level Boston Center
Sun 02:00:27 PM 41.1917 -72.4925 221° Southwest 236 272 14,000  Level Boston Center
Sun 02:01:27 PM 41.1458 -72.5475 222° Southwest 236 272 14,000 -50 Level Boston Center
Sun 02:02:27 PM 41.0956 -72.6081 222° Southwest 236 272 13,900 -500 Descending Boston Center
Sun 02:03:27 PM 41.0414 -72.6658 219° Southwest 236 272 13,000 -500 Descending Boston Center
Sun 02:04:27 PM 40.9869 -72.7261 220° Southwest 247 284 12,900 -485 Descending Boston Center
Sun 02:05:43 PM 40.9333 -72.8000 226° Southwest 224 258 11,900 -397 Descending New York TRACON
Sun 02:06:43 PM 40.8833 -72.8500 217° Southwest 228 262 12,000 -550 Climbing New York TRACON
Sun 02:07:43 PM 40.8333 -72.9167 225° Southwest 251 289 10,800 -1,300 Descending New York TRACON
Sun 02:08:43 PM 40.7833 -72.9667 217° Southwest 267 307 9,400 -1,350 Descending New York TRACON
Sun 02:09:43 PM 40.7500 -73.0500 242° Southwest 236 272 8,100 -1,316 Descending New York TRACON
Sun 02:10:37 PM 40.7333 -73.1167 252° West 226 260 6,900 -1,850 Descending New York TRACON
Sun 02:11:43 PM 40.7167 -73.2000 255° West 226 260 4,400 -2,050 Descending New York TRACON
Sun 02:12:37 PM 40.6833 -73.2500 229° Southwest 213 245 2,800 -1,316 Descending New York TRACON
Sun 02:13:37 PM 40.6500 -73.3167 237° Southwest 190 219 1,900 -500 Descending New York TRACON
Sun 02:14:37 PM 40.6500 -73.3667 270° West 143 165 1,800 -150 Descending New York TRACON
Sun 02:15:37 PM 40.6667 -73.4167 294° West 133 153 1,600 -550 Descending New York TRACON
Sun 02:16:37 PM 40.7000 -73.4167 360° North 109 125 700 -900 Descending New York TRACON
Sun 02:18:00 PM 40.7167 -73.4000 37° Northeast  Level FlightAware Approximate
Sun 02:25:00 PM 40.7288 -73.4134 37° Northeast  Level Estimated
Sun 02:26:00 PM 40.7288 -73.4134 37° Northeast  Level Estimated

Login

Don't have an account? Register now (free) for customized features, flight alerts, and more!